Al Cenac — WDD5445 — position and weather

sailwx.info

Track history (hours):
 
Tides and Currents Weather Stations Pressure Air Temp Water Temp Dewpoint Dewpoint Depression Visibility Wind Speed Wind Dir Waves Ship Positions

Al Cenac

Owner: Caillou Island Towing Co, Inc., Houma, LA. More information available from US FCC via Universal Licensing System and Coast Guard Vessel Documentation Center.

Last reported at 2017-Jan-18 11:32 UTC. Time now 2017-Jan-18 12:10 UTC.
Position N 40°39' W 074°10'.

; draft 10 m.

Type: Tug. MMSI: 367158530.

Date/timePositionNaut miles runAvg speedWind from/ knotsBaromVisibWave heightAir tempDewpointWater temp
2017-Jan-18 11:32N 40°39' W 074°10'0 0.0
2017-Jan-18 10:33N 40°39' W 074°10'0 0.0
2017-Jan-18 09:32N 40°39' W 074°10'0 0.0
2017-Jan-18 08:33N 40°39' W 074°10'0 0.0
2017-Jan-18 07:33N 40°39' W 074°10'0 0.0
2017-Jan-18 06:33N 40°39' W 074°10'0 0.0
2017-Jan-18 05:33N 40°39' W 074°10'0 0.0
2017-Jan-18 04:33N 40°39' W 074°10'0 0.0
2017-Jan-18 03:33N 40°39' W 074°10'0 0.0
2017-Jan-18 02:33N 40°39' W 074°10'0 0.0
2017-Jan-18 01:32N 40°39' W 074°10'0 0.0
2017-Jan-18 00:33N 40°39' W 074°10'0 0.0
2017-Jan-17 23:33N 40°39' W 074°10'0 0.0
2017-Jan-17 22:33N 40°39' W 074°10'0 0.0
2017-Jan-17 21:33N 40°39' W 074°10'0 0.0
2017-Jan-17 20:33N 40°39' W 074°10'0 0.0
2017-Jan-17 19:33N 40°39' W 074°10'0 0.0
2017-Jan-17 18:33N 40°39' W 074°10'5 4.7
2017-Jan-17 17:33N 40°34' W 074°13'2 2.0
2017-Jan-17 16:17N 40°33' W 074°15'6 7.4
2017-Jan-17 15:32N 40°38' W 074°12'3 3.4
2017-Jan-17 14:33N 40°39' W 074°08'3 2.9
2017-Jan-17 13:33N 40°39' W 074°04'1 0.5
2017-Jan-17 12:33N 40°40' W 074°04'2 2.3
2017-Jan-17 11:33N 40°39' W 074°07'0 0.2
2017-Jan-17 10:33N 40°39' W 074°07'0 0.0
2017-Jan-17 09:33N 40°39' W 074°07'0 0.0
2017-Jan-17 08:33N 40°39' W 074°07'0 0.0
2017-Jan-17 07:33N 40°39' W 074°07'0 0.0
2017-Jan-17 06:33N 40°39' W 074°07'0 0.0
2017-Jan-17 05:33N 40°39' W 074°07'0 0.3
2017-Jan-17 04:33N 40°39' W 074°07'2 2.0
2017-Jan-17 03:33N 40°38' W 074°10'0 0.2
2017-Jan-17 02:33N 40°38' W 074°10'0 0.0
2017-Jan-17 01:33N 40°38' W 074°10'5 5.1
2017-Jan-17 00:33N 40°34' W 074°13'2 2.5
2017-Jan-16 23:32N 40°32' W 074°15'4 3.9
2017-Jan-16 22:33N 40°35' W 074°12'4 3.6
2017-Jan-16 21:33N 40°38' W 074°10'0 0.0
2017-Jan-16 20:33N 40°38' W 074°10'0 0.0
2017-Jan-16 19:33N 40°38' W 074°10'0 0.0
2017-Jan-16 18:32N 40°38' W 074°10'0 0.0
2017-Jan-16 17:32N 40°38' W 074°10'0 0.1
2017-Jan-16 16:33N 40°38' W 074°10'1 0.8
2017-Jan-16 15:33N 40°38' W 074°09'1 0.9
2017-Jan-16 14:30N 40°38' W 074°10'0 0.0
2017-Jan-16 13:30N 40°38' W 074°10'0 0.0
2017-Jan-16 12:33N 40°38' W 074°10'0 0.0
2017-Jan-16 11:33N 40°38' W 074°10'0 0.0
2017-Jan-16 10:33N 40°38' W 074°10'0 0.0
2017-Jan-16 09:33N 40°38' W 074°10'0 0.0
2017-Jan-16 08:33N 40°38' W 074°10'0 0.0
2017-Jan-16 07:33N 40°38' W 074°10'0 0.0
2017-Jan-16 06:33N 40°38' W 074°10'0 0.0
2017-Jan-16 05:33N 40°38' W 074°10'0 0.0
2017-Jan-16 04:33N 40°38' W 074°10'0 0.0
2017-Jan-16 03:32N 40°38' W 074°10'0 0.0
2017-Jan-16 02:33N 40°38' W 074°10'0 0.0
2017-Jan-16 01:33N 40°38' W 074°10'4 3.2
2017-Jan-16 00:19N 40°35' W 074°13'0 0.0
2017-Jan-15 23:33N 40°35' W 074°13'4 4.0
2017-Jan-15 22:33N 40°38' W 074°10'0 0.0
2017-Jan-15 21:33N 40°38' W 074°10'0 0.0
2017-Jan-15 20:30N 40°38' W 074°10'0 0.0
2017-Jan-15 19:32N 40°38' W 074°10'0 0.0
2017-Jan-15 18:33N 40°38' W 074°10'0 0.0
2017-Jan-15 17:33N 40°38' W 074°10'0 0.0
2017-Jan-15 16:32N 40°38' W 074°10'4 1.8
2017-Jan-15 14:25N 40°35' W 074°13'4 4.6
2017-Jan-15 13:33N 40°39' W 074°10'0 0.0
2017-Jan-15 12:33N 40°39' W 074°10'0 0.0
2017-Jan-15 11:33N 40°39' W 074°10'0 0.0
2017-Jan-15 10:33N 40°39' W 074°10'0 0.0
2017-Jan-15 09:33N 40°39' W 074°10'0 0.0
2017-Jan-15 08:33N 40°39' W 074°10'0 0.0
2017-Jan-15 07:33N 40°39' W 074°10'0 0.0
2017-Jan-15 06:33N 40°39' W 074°10'0 0.0
2017-Jan-15 05:33N 40°39' W 074°10'0 0.0
2017-Jan-15 04:33N 40°39' W 074°10'0 0.0
2017-Jan-15 03:33N 40°39' W 074°10'0 0.0
2017-Jan-15 02:33N 40°39' W 074°10'0 0.0
2017-Jan-15 01:33N 40°39' W 074°10'0 0.0
2017-Jan-15 00:33N 40°39' W 074°10'0 0.0
2017-Jan-14 23:33N 40°39' W 074°10'0 0.0
2017-Jan-14 22:33N 40°39' W 074°10'0 0.0
2017-Jan-14 21:33N 40°39' W 074°10'0 0.0
2017-Jan-14 20:33N 40°39' W 074°10'0 0.0
2017-Jan-14 19:33N 40°39' W 074°10'0 0.0
2017-Jan-14 18:33N 40°39' W 074°10'0 0.0
2017-Jan-14 17:33N 40°39' W 074°10'0 0.0
2017-Jan-14 16:33N 40°39' W 074°10'0 0.0
2017-Jan-14 15:33N 40°39' W 074°10'0 0.0
2017-Jan-14 14:33N 40°39' W 074°10'0 0.1
2017-Jan-14 13:33N 40°39' W 074°10'0 0.0
2017-Jan-14 12:33N 40°39' W 074°10'0 0.1
2017-Jan-14 11:33N 40°39' W 074°10'0 0.0
2017-Jan-14 10:33N 40°39' W 074°10'0 0.0
2017-Jan-14 09:33N 40°39' W 074°10'2 1.7
2017-Jan-14 08:33N 40°39' W 074°08'1 1.2
2017-Jan-14 07:33N 40°39' W 074°06'3 3.0
2017-Jan-14 06:33N 40°39' W 074°10'0 0.0
2017-Jan-14 05:33N 40°39' W 074°10'0 0.0
2017-Jan-14 04:33N 40°39' W 074°10'0 0.0
2017-Jan-14 03:33N 40°39' W 074°10'0 0.0
2017-Jan-13 23:33N 40°39' W 074°10'0 0.0
2017-Jan-13 22:33N 40°39' W 074°10'0 0.0
2017-Jan-13 21:33N 40°39' W 074°10'0 0.0
2017-Jan-13 20:33N 40°39' W 074°10'0 0.0
2017-Jan-13 19:31N 40°39' W 074°10'0 0.0
2017-Jan-13 18:33N 40°39' W 074°10'0 0.0
2017-Jan-13 17:33N 40°39' W 074°10'0 0.0
2017-Jan-13 16:33N 40°39' W 074°10'0 0.1
2017-Jan-13 15:33N 40°39' W 074°10'4 0.7
2017-Jan-13 09:33N 40°35' W 074°13'1 0.2
2017-Jan-13 04:21N 40°36' W 074°12'5 6.4
2017-Jan-13 03:33N 40°39' W 074°06'0 0.3
2017-Jan-13 02:33N 40°39' W 074°06'0 0.2
2017-Jan-13 01:33N 40°39' W 074°06'1 1.1
2017-Jan-13 00:33N 40°39' W 074°08'2 1.7
2017-Jan-12 23:33N 40°39' W 074°10'0 0.0
2017-Jan-12 22:33N 40°39' W 074°10'0 0.0
2017-Jan-12 21:33N 40°39' W 074°10'0 0.0
2017-Jan-12 20:33N 40°39' W 074°10'4 3.6
2017-Jan-12 19:33N 40°39' W 074°05'1 0.9
2017-Jan-12 18:33N 40°40' W 074°04'4 4.1
2017-Jan-12 17:33N 40°38' W 074°10'0 0.1
2017-Jan-12 16:33N 40°39' W 074°10'0 0.0
2017-Jan-12 15:33N 40°39' W 074°10'0 0.0
2017-Jan-12 14:33N 40°39' W 074°10'0 0.0
2017-Jan-12 13:33N 40°39' W 074°10'0 0.0
2017-Jan-12 12:33N 40°39' W 074°10'0 0.0
2017-Jan-12 11:33N 40°39' W 074°10'0 0.0
2017-Jan-12 10:33N 40°39' W 074°10'7 3.1
2017-Jan-12 08:13N 40°32' W 074°15'5 6.4
2017-Jan-12 07:31N 40°36' W 074°12'6 6.4
2017-Jan-12 06:33N 40°39' W 074°05'1 0.9
2017-Jan-12 05:33N 40°39' W 074°06'3 2.8
2017-Jan-12 04:33N 40°39' W 074°10'0 0.0
2017-Jan-12 03:33N 40°39' W 074°10'0 0.0
2017-Jan-12 02:33N 40°39' W 074°10'0 0.0
2017-Jan-12 01:33N 40°39' W 074°10'0 0.0
2017-Jan-12 00:33N 40°39' W 074°10'0 0.0
2017-Jan-11 23:33N 40°39' W 074°10'0 0.0
2017-Jan-11 22:33N 40°39' W 074°10'0 0.0
2017-Jan-11 21:33N 40°39' W 074°10'0 0.0
2017-Jan-11 20:33N 40°39' W 074°10'0 0.0
2017-Jan-11 19:33N 40°39' W 074°10'0 0.3
2017-Jan-11 18:33N 40°38' W 074°10'4 4.2
2017-Jan-11 17:34N 40°39' W 074°04'0 0.1
2017-Jan-11 16:34N 40°39' W 074°04'4 3.7
2017-Jan-11 15:33N 40°36' W 074°02'5 5.1
2017-Jan-11 14:33N 40°34' W 073°56'7 6.8
2017-Jan-11 13:32N 40°36' W 073°47'2 0.6
2017-Jan-11 09:32N 40°38' W 073°45'0 0.0
2017-Jan-11 08:33N 40°38' W 073°45'0 0.0
2017-Jan-11 07:26N 40°38' W 073°45'0 0.0
2017-Jan-11 04:21N 40°38' W 073°45'0 0.0
2017-Jan-11 03:31N 40°38' W 073°45'0 0.0
2017-Jan-11 02:32N 40°38' W 073°45'0 0.0
2017-Jan-10 22:33N 40°38' W 073°45'12 5.3
2017-Jan-10 20:22N 40°34' W 073°59'4 5.4
2017-Jan-10 19:33N 40°37' W 074°03'3 2.6
2017-Jan-10 18:33N 40°40' W 074°04'0 0.0
2017-Jan-10 17:34N 40°40' W 074°04'0 0.0
2017-Jan-10 16:33N 40°40' W 074°04'0 0.0
2017-Jan-10 15:33N 40°40' W 074°04'0 0.0
2017-Jan-10 14:33N 40°40' W 074°04'0 0.0
2017-Jan-10 13:33N 40°40' W 074°04'0 0.2
2017-Jan-10 12:33N 40°40' W 074°04'0 0.0
2017-Jan-10 11:33N 40°40' W 074°04'0 0.0
2017-Jan-10 10:33N 40°40' W 074°04'0 0.3
2017-Jan-10 09:33N 40°39' W 074°04'0 0.1
2017-Jan-10 08:33N 40°39' W 074°04'0 0.1
2017-Jan-10 07:33N 40°39' W 074°04'0 0.1
2017-Jan-10 06:33N 40°39' W 074°04'0 0.5
2017-Jan-10 05:33N 40°40' W 074°04'4 3.9
2017-Jan-10 04:33N 40°39' W 074°09'4 4.4
2017-Jan-10 03:33N 40°35' W 074°12'2 0.5
2017-Jan-09 23:19N 40°33' W 074°14'0 0.0
2017-Jan-09 17:08N 40°33' W 074°14'5 8.3
2017-Jan-09 16:33N 40°38' W 074°12'0 0.4
2017-Jan-09 15:33N 40°38' W 074°12'2 0.1
2017-Jan-09 03:33N 40°39' W 074°09'0 0.4
2017-Jan-09 02:33N 40°39' W 074°10'0 0.0
2017-Jan-09 01:33N 40°39' W 074°10'0 0.0
2017-Jan-09 00:33N 40°39' W 074°10'0 0.0
2017-Jan-08 23:33N 40°39' W 074°10'0 0.0
2017-Jan-08 22:33N 40°39' W 074°10'0 0.0
2017-Jan-08 21:33N 40°39' W 074°10'1 1.3
2017-Jan-08 20:33N 40°39' W 074°08'7 6.8
2017-Jan-08 19:33N 40°42' W 074°00'5 5.1
2017-Jan-08 18:33N 40°46' W 073°57'6 5.7
2017-Jan-08 17:33N 40°48' W 073°50'  
Track history (hours):
 
Tides and Currents Weather Stations Pressure Air Temp Water Temp Dewpoint Dewpoint Depression Visibility Wind Speed Wind Dir Waves Ship Positions

Al Cenac

Owner: Caillou Island Towing Co, Inc., Houma, LA. More information available from US FCC via Universal Licensing System and Coast Guard Vessel Documentation Center.

Last reported at 2017-Jan-18 11:32 UTC. Time now 2017-Jan-18 12:10 UTC.
Position N 40°39' W 074°10'.

; draft 10 m.

Type: Tug. MMSI: 367158530.

Date/timePositionNaut miles runAvg speedWind from/ knotsBaromVisibWave heightAir tempDewpointWater temp
2017-Jan-18 11:32N 40°39' W 074°10'0 0.0
2017-Jan-18 10:33N 40°39' W 074°10'0 0.0
2017-Jan-18 09:32N 40°39' W 074°10'0 0.0
2017-Jan-18 08:33N 40°39' W 074°10'0 0.0
2017-Jan-18 07:33N 40°39' W 074°10'0 0.0
2017-Jan-18 06:33N 40°39' W 074°10'0 0.0
2017-Jan-18 05:33N 40°39' W 074°10'0 0.0
2017-Jan-18 04:33N 40°39' W 074°10'0 0.0
2017-Jan-18 03:33N 40°39' W 074°10'0 0.0
2017-Jan-18 02:33N 40°39' W 074°10'0 0.0
2017-Jan-18 01:32N 40°39' W 074°10'0 0.0
2017-Jan-18 00:33N 40°39' W 074°10'0 0.0
2017-Jan-17 23:33N 40°39' W 074°10'0 0.0
2017-Jan-17 22:33N 40°39' W 074°10'0 0.0
2017-Jan-17 21:33N 40°39' W 074°10'0 0.0
2017-Jan-17 20:33N 40°39' W 074°10'0 0.0
2017-Jan-17 19:33N 40°39' W 074°10'0 0.0
2017-Jan-17 18:33N 40°39' W 074°10'5 4.7
2017-Jan-17 17:33N 40°34' W 074°13'2 2.0
2017-Jan-17 16:17N 40°33' W 074°15'6 7.4
2017-Jan-17 15:32N 40°38' W 074°12'3 3.4
2017-Jan-17 14:33N 40°39' W 074°08'3 2.9
2017-Jan-17 13:33N 40°39' W 074°04'1 0.5
2017-Jan-17 12:33N 40°40' W 074°04'2 2.3
2017-Jan-17 11:33N 40°39' W 074°07'0 0.2
2017-Jan-17 10:33N 40°39' W 074°07'0 0.0
2017-Jan-17 09:33N 40°39' W 074°07'0 0.0
2017-Jan-17 08:33N 40°39' W 074°07'0 0.0
2017-Jan-17 07:33N 40°39' W 074°07'0 0.0
2017-Jan-17 06:33N 40°39' W 074°07'0 0.0
2017-Jan-17 05:33N 40°39' W 074°07'0 0.3
2017-Jan-17 04:33N 40°39' W 074°07'2 2.0
2017-Jan-17 03:33N 40°38' W 074°10'0 0.2
2017-Jan-17 02:33N 40°38' W 074°10'0 0.0
2017-Jan-17 01:33N 40°38' W 074°10'5 5.1
2017-Jan-17 00:33N 40°34' W 074°13'2 2.5
2017-Jan-16 23:32N 40°32' W 074°15'4 3.9
2017-Jan-16 22:33N 40°35' W 074°12'4 3.6
2017-Jan-16 21:33N 40°38' W 074°10'0 0.0
2017-Jan-16 20:33N 40°38' W 074°10'0 0.0
2017-Jan-16 19:33N 40°38' W 074°10'0 0.0
2017-Jan-16 18:32N 40°38' W 074°10'0 0.0
2017-Jan-16 17:32N 40°38' W 074°10'0 0.1
2017-Jan-16 16:33N 40°38' W 074°10'1 0.8
2017-Jan-16 15:33N 40°38' W 074°09'1 0.9
2017-Jan-16 14:30N 40°38' W 074°10'0 0.0
2017-Jan-16 13:30N 40°38' W 074°10'0 0.0
2017-Jan-16 12:33N 40°38' W 074°10'0 0.0
2017-Jan-16 11:33N 40°38' W 074°10'0 0.0
2017-Jan-16 10:33N 40°38' W 074°10'0 0.0
2017-Jan-16 09:33N 40°38' W 074°10'0 0.0
2017-Jan-16 08:33N 40°38' W 074°10'0 0.0
2017-Jan-16 07:33N 40°38' W 074°10'0 0.0
2017-Jan-16 06:33N 40°38' W 074°10'0 0.0
2017-Jan-16 05:33N 40°38' W 074°10'0 0.0
2017-Jan-16 04:33N 40°38' W 074°10'0 0.0
2017-Jan-16 03:32N 40°38' W 074°10'0 0.0
2017-Jan-16 02:33N 40°38' W 074°10'0 0.0
2017-Jan-16 01:33N 40°38' W 074°10'4 3.2
2017-Jan-16 00:19N 40°35' W 074°13'0 0.0
2017-Jan-15 23:33N 40°35' W 074°13'4 4.0
2017-Jan-15 22:33N 40°38' W 074°10'0 0.0
2017-Jan-15 21:33N 40°38' W 074°10'0 0.0
2017-Jan-15 20:30N 40°38' W 074°10'0 0.0
2017-Jan-15 19:32N 40°38' W 074°10'0 0.0
2017-Jan-15 18:33N 40°38' W 074°10'0 0.0
2017-Jan-15 17:33N 40°38' W 074°10'0 0.0
2017-Jan-15 16:32N 40°38' W 074°10'4 1.8
2017-Jan-15 14:25N 40°35' W 074°13'4 4.6
2017-Jan-15 13:33N 40°39' W 074°10'0 0.0
2017-Jan-15 12:33N 40°39' W 074°10'0 0.0
2017-Jan-15 11:33N 40°39' W 074°10'0 0.0
2017-Jan-15 10:33N 40°39' W 074°10'0 0.0
2017-Jan-15 09:33N 40°39' W 074°10'0 0.0
2017-Jan-15 08:33N 40°39' W 074°10'0 0.0
2017-Jan-15 07:33N 40°39' W 074°10'0 0.0
2017-Jan-15 06:33N 40°39' W 074°10'0 0.0
2017-Jan-15 05:33N 40°39' W 074°10'0 0.0
2017-Jan-15 04:33N 40°39' W 074°10'0 0.0
2017-Jan-15 03:33N 40°39' W 074°10'0 0.0
2017-Jan-15 02:33N 40°39' W 074°10'0 0.0
2017-Jan-15 01:33N 40°39' W 074°10'0 0.0
2017-Jan-15 00:33N 40°39' W 074°10'0 0.0
2017-Jan-14 23:33N 40°39' W 074°10'0 0.0
2017-Jan-14 22:33N 40°39' W 074°10'0 0.0
2017-Jan-14 21:33N 40°39' W 074°10'0 0.0
2017-Jan-14 20:33N 40°39' W 074°10'0 0.0
2017-Jan-14 19:33N 40°39' W 074°10'0 0.0
2017-Jan-14 18:33N 40°39' W 074°10'0 0.0
2017-Jan-14 17:33N 40°39' W 074°10'0 0.0
2017-Jan-14 16:33N 40°39' W 074°10'0 0.0
2017-Jan-14 15:33N 40°39' W 074°10'0 0.0
2017-Jan-14 14:33N 40°39' W 074°10'0 0.1
2017-Jan-14 13:33N 40°39' W 074°10'0 0.0
2017-Jan-14 12:33N 40°39' W 074°10'0 0.1
2017-Jan-14 11:33N 40°39' W 074°10'0 0.0
2017-Jan-14 10:33N 40°39' W 074°10'0 0.0
2017-Jan-14 09:33N 40°39' W 074°10'2 1.7
2017-Jan-14 08:33N 40°39' W 074°08'1 1.2
2017-Jan-14 07:33N 40°39' W 074°06'3 3.0
2017-Jan-14 06:33N 40°39' W 074°10'0 0.0
2017-Jan-14 05:33N 40°39' W 074°10'0 0.0
2017-Jan-14 04:33N 40°39' W 074°10'0 0.0
2017-Jan-14 03:33N 40°39' W 074°10'0 0.0
2017-Jan-13 23:33N 40°39' W 074°10'0 0.0
2017-Jan-13 22:33N 40°39' W 074°10'0 0.0
2017-Jan-13 21:33N 40°39' W 074°10'0 0.0
2017-Jan-13 20:33N 40°39' W 074°10'0 0.0
2017-Jan-13 19:31N 40°39' W 074°10'0 0.0
2017-Jan-13 18:33N 40°39' W 074°10'0 0.0
2017-Jan-13 17:33N 40°39' W 074°10'0 0.0
2017-Jan-13 16:33N 40°39' W 074°10'0 0.1
2017-Jan-13 15:33N 40°39' W 074°10'4 0.7
2017-Jan-13 09:33N 40°35' W 074°13'1 0.2
2017-Jan-13 04:21N 40°36' W 074°12'5 6.4
2017-Jan-13 03:33N 40°39' W 074°06'0 0.3
2017-Jan-13 02:33N 40°39' W 074°06'0 0.2
2017-Jan-13 01:33N 40°39' W 074°06'1 1.1
2017-Jan-13 00:33N 40°39' W 074°08'2 1.7
2017-Jan-12 23:33N 40°39' W 074°10'0 0.0
2017-Jan-12 22:33N 40°39' W 074°10'0 0.0
2017-Jan-12 21:33N 40°39' W 074°10'0 0.0
2017-Jan-12 20:33N 40°39' W 074°10'4 3.6
2017-Jan-12 19:33N 40°39' W 074°05'1 0.9
2017-Jan-12 18:33N 40°40' W 074°04'4 4.1
2017-Jan-12 17:33N 40°38' W 074°10'0 0.1
2017-Jan-12 16:33N 40°39' W 074°10'0 0.0
2017-Jan-12 15:33N 40°39' W 074°10'0 0.0
2017-Jan-12 14:33N 40°39' W 074°10'0 0.0
2017-Jan-12 13:33N 40°39' W 074°10'0 0.0
2017-Jan-12 12:33N 40°39' W 074°10'0 0.0
2017-Jan-12 11:33N 40°39' W 074°10'0 0.0
2017-Jan-12 10:33N 40°39' W 074°10'7 3.1
2017-Jan-12 08:13N 40°32' W 074°15'5 6.4
2017-Jan-12 07:31N 40°36' W 074°12'6 6.4
2017-Jan-12 06:33N 40°39' W 074°05'1 0.9
2017-Jan-12 05:33N 40°39' W 074°06'3 2.8
2017-Jan-12 04:33N 40°39' W 074°10'0 0.0
2017-Jan-12 03:33N 40°39' W 074°10'0 0.0
2017-Jan-12 02:33N 40°39' W 074°10'0 0.0
2017-Jan-12 01:33N 40°39' W 074°10'0 0.0
2017-Jan-12 00:33N 40°39' W 074°10'0 0.0
2017-Jan-11 23:33N 40°39' W 074°10'0 0.0
2017-Jan-11 22:33N 40°39' W 074°10'0 0.0
2017-Jan-11 21:33N 40°39' W 074°10'0 0.0
2017-Jan-11 20:33N 40°39' W 074°10'0 0.0
2017-Jan-11 19:33N 40°39' W 074°10'0 0.3
2017-Jan-11 18:33N 40°38' W 074°10'4 4.2
2017-Jan-11 17:34N 40°39' W 074°04'0 0.1
2017-Jan-11 16:34N 40°39' W 074°04'4 3.7
2017-Jan-11 15:33N 40°36' W 074°02'5 5.1
2017-Jan-11 14:33N 40°34' W 073°56'7 6.8
2017-Jan-11 13:32N 40°36' W 073°47'2 0.6
2017-Jan-11 09:32N 40°38' W 073°45'0 0.0
2017-Jan-11 08:33N 40°38' W 073°45'0 0.0
2017-Jan-11 07:26N 40°38' W 073°45'0 0.0
2017-Jan-11 04:21N 40°38' W 073°45'0 0.0
2017-Jan-11 03:31N 40°38' W 073°45'0 0.0
2017-Jan-11 02:32N 40°38' W 073°45'0 0.0
2017-Jan-10 22:33N 40°38' W 073°45'12 5.3
2017-Jan-10 20:22N 40°34' W 073°59'4 5.4
2017-Jan-10 19:33N 40°37' W 074°03'3 2.6
2017-Jan-10 18:33N 40°40' W 074°04'0 0.0
2017-Jan-10 17:34N 40°40' W 074°04'0 0.0
2017-Jan-10 16:33N 40°40' W 074°04'0 0.0
2017-Jan-10 15:33N 40°40' W 074°04'0 0.0
2017-Jan-10 14:33N 40°40' W 074°04'0 0.0
2017-Jan-10 13:33N 40°40' W 074°04'0 0.2
2017-Jan-10 12:33N 40°40' W 074°04'0 0.0
2017-Jan-10 11:33N 40°40' W 074°04'0 0.0
2017-Jan-10 10:33N 40°40' W 074°04'0 0.3
2017-Jan-10 09:33N 40°39' W 074°04'0 0.1
2017-Jan-10 08:33N 40°39' W 074°04'0 0.1
2017-Jan-10 07:33N 40°39' W 074°04'0 0.1
2017-Jan-10 06:33N 40°39' W 074°04'0 0.5
2017-Jan-10 05:33N 40°40' W 074°04'4 3.9
2017-Jan-10 04:33N 40°39' W 074°09'4 4.4
2017-Jan-10 03:33N 40°35' W 074°12'2 0.5
2017-Jan-09 23:19N 40°33' W 074°14'0 0.0
2017-Jan-09 17:08N 40°33' W 074°14'5 8.3
2017-Jan-09 16:33N 40°38' W 074°12'0 0.4
2017-Jan-09 15:33N 40°38' W 074°12'2 0.1
2017-Jan-09 03:33N 40°39' W 074°09'0 0.4
2017-Jan-09 02:33N 40°39' W 074°10'0 0.0
2017-Jan-09 01:33N 40°39' W 074°10'0 0.0
2017-Jan-09 00:33N 40°39' W 074°10'0 0.0
2017-Jan-08 23:33N 40°39' W 074°10'0 0.0
2017-Jan-08 22:33N 40°39' W 074°10'0 0.0
2017-Jan-08 21:33N 40°39' W 074°10'1 1.3
2017-Jan-08 20:33N 40°39' W 074°08'7 6.8
2017-Jan-08 19:33N 40°42' W 074°00'5 5.1
2017-Jan-08 18:33N 40°46' W 073°57'6 5.7
2017-Jan-08 17:33N 40°48' W 073°50'  

Dump ship's entire track history